To NAV CANADA Home Page Login to a new session Search on AWWS site Feedback and Comments Disclaimer Vers la page française équivalente Tips FAQ What's new on the site To the Forecasts and Observations / NOTAM section To "File a Flight Plan" website Publications and other links Update of the User's profile FIC Telephone Numbers My Weather Data Folder Route Weather Data Regional Weather Data Local Weather Data To the Forecasts and Observations / NOTAM section
Request Generated 05/28/2015 at 15:55:16 UTC . Weather information available at that time is displayed.

METAR/TAF

KUUJJUAQ/QC    

METAR CYVP 281500Z 30012G21KT 12SM -SN OVC034 00/M04 A2996 RMK SC8
SLP149=
SPECI CYVP 281436Z 31009KT 260V330 2SM -SN OVC026 00/M03 A2996 RMK
SN4SC4 SLP148=
METAR CYVP 281400Z 30007KT 6SM -SN OVC021 00/M04 A2995 RMK SC8
SLP145=
METAR CYVP 281300Z 29009KT 15SM -SN OVC027 M00/M05 A2994 RMK SC8 VIS
SW LWR SLP141=

TAF CYVP 281139Z 2812/2824 31010G20KT P6SM OVC020 TEMPO 2812/2815
OVC025
FM281500 29010G20KT P6SM -SN SCT020 OVC040 TEMPO 2815/2824 5SM
-SHSN OVC020
BECMG 2817/2819 28015G25KT
RMK NXT FCST BY 281800Z=
Your time UTC time
Weather data provided by Environment Canada and NAV CANADA